sensor_id;sensor_type;location;lat;lon;timestamp;pressure;altitude;pressure_sealevel;temperature;humidity
46392;BME280;32098;49.448;7.904;2023-04-06T00:00:33;98412.19;;;-0.31;60.28
46392;BME280;32098;49.448;7.904;2023-04-06T00:02:59;98405.00;;;-0.21;59.74
46392;BME280;32098;49.448;7.904;2023-04-06T00:05:26;98403.00;;;-0.35;60.08
46392;BME280;32098;49.448;7.904;2023-04-06T00:07:54;98395.72;;;-0.41;59.99
46392;BME280;32098;49.448;7.904;2023-04-06T00:10:22;98401.28;;;-0.44;60.06
46392;BME280;32098;49.448;7.904;2023-04-06T00:12:49;98407.00;;;-0.49;61.15
46392;BME280;32098;49.448;7.904;2023-04-06T00:15:15;98398.16;;;-0.48;60.82
46392;BME280;32098;49.448;7.904;2023-04-06T00:17:42;98396.50;;;-0.49;60.61
46392;BME280;32098;49.448;7.904;2023-04-06T00:20:09;98380.53;;;-0.63;60.63
46392;BME280;32098;49.448;7.904;2023-04-06T00:22:36;98390.44;;;-0.49;60.77
46392;BME280;32098;49.448;7.904;2023-04-06T00:25:03;98389.94;;;-0.53;61.18
46392;BME280;32098;49.448;7.904;2023-04-06T00:27:29;98390.25;;;-0.56;60.95
46392;BME280;32098;49.448;7.904;2023-04-06T00:29:56;98380.09;;;-0.51;60.58
46392;BME280;32098;49.448;7.904;2023-04-06T00:32:23;98381.66;;;-0.40;60.58
46392;BME280;32098;49.448;7.904;2023-04-06T00:34:50;98380.63;;;-0.47;60.78
46392;BME280;32098;49.448;7.904;2023-04-06T00:37:17;98383.25;;;-0.47;61.18
46392;BME280;32098;49.448;7.904;2023-04-06T00:39:45;98373.13;;;-0.42;60.19
46392;BME280;32098;49.448;7.904;2023-04-06T00:42:12;98380.28;;;-0.52;60.77
46392;BME280;32098;49.448;7.904;2023-04-06T00:44:43;98380.41;;;-0.54;60.96
46392;BME280;32098;49.448;7.904;2023-04-06T00:47:10;98379.91;;;-0.57;61.44
46392;BME280;32098;49.448;7.904;2023-04-06T00:49:36;98369.91;;;-0.54;60.95
46392;BME280;32098;49.448;7.904;2023-04-06T00:52:03;98378.25;;;-0.58;60.69
46392;BME280;32098;49.448;7.904;2023-04-06T00:54:29;98362.94;;;-0.71;61.69
46392;BME280;32098;49.448;7.904;2023-04-06T00:56:58;98362.06;;;-0.79;61.47
46392;BME280;32098;49.448;7.904;2023-04-06T00:59:27;98319.25;;;-1.14;62.08
46392;BME280;32098;49.448;7.904;2023-04-06T01:01:56;98366.69;;;-0.73;61.50
46392;BME280;32098;49.448;7.904;2023-04-06T01:04:32;98362.13;;;-0.71;61.94
46392;BME280;32098;49.448;7.904;2023-04-06T01:07:00;98361.75;;;-0.76;61.54
46392;BME280;32098;49.448;7.904;2023-04-06T01:09:35;98319.72;;;-1.18;61.75
46392;BME280;32098;49.448;7.904;2023-04-06T01:12:07;98348.75;;;-1.12;62.13
46392;BME280;32098;49.448;7.904;2023-04-06T01:14:34;98357.03;;;-0.98;61.86
46392;BME280;32098;49.448;7.904;2023-04-06T01:17:01;98350.47;;;-1.02;62.10
46392;BME280;32098;49.448;7.904;2023-04-06T01:19:30;98360.31;;;-0.96;62.21
46392;BME280;32098;49.448;7.904;2023-04-06T01:21:57;98357.03;;;-0.98;62.17
46392;BME280;32098;49.448;7.904;2023-04-06T01:24:30;98348.94;;;-0.87;62.23
46392;BME280;32098;49.448;7.904;2023-04-06T01:27:17;98348.94;;;-0.87;62.62
46392;BME280;32098;49.448;7.904;2023-04-06T01:30:16;98340.91;;;-0.86;62.28
46392;BME280;32098;49.448;7.904;2023-04-06T01:32:57;98340.38;;;-0.89;61.82
46392;BME280;32098;49.448;7.904;2023-04-06T01:35:35;98344.59;;;-0.96;62.27
46392;BME280;32098;49.448;7.904;2023-04-06T01:38:15;98342.97;;;-0.97;61.71
46392;BME280;32098;49.448;7.904;2023-04-06T01:40:43;98338.69;;;-0.98;61.98
46392;BME280;32098;49.448;7.904;2023-04-06T01:43:11;98338.22;;;-0.94;62.34
46392;BME280;32098;49.448;7.904;2023-04-06T01:45:54;98344.09;;;-1.00;62.77
46392;BME280;32098;49.448;7.904;2023-04-06T01:48:22;98340.16;;;-0.96;62.62
46392;BME280;32098;49.448;7.904;2023-04-06T01:50:49;98335.59;;;-0.94;62.48
46392;BME280;32098;49.448;7.904;2023-04-06T01:53:21;98337.38;;;-0.94;62.13
46392;BME280;32098;49.448;7.904;2023-04-06T01:55:48;98335.47;;;-0.92;62.98
46392;BME280;32098;49.448;7.904;2023-04-06T01:58:29;98330.50;;;-0.95;62.83
46392;BME280;32098;49.448;7.904;2023-04-06T02:00:59;98282.56;;;-1.14;61.77
46392;BME280;32098;49.448;7.904;2023-04-06T02:03:33;98324.97;;;-0.92;61.90
46392;BME280;32098;49.448;7.904;2023-04-06T02:06:05;98328.84;;;-0.96;61.82
46392;BME280;32098;49.448;7.904;2023-04-06T02:08:37;98328.66;;;-1.03;61.99
46392;BME280;32098;49.448;7.904;2023-04-06T02:11:03;98329.50;;;-1.02;62.85
46392;BME280;32098;49.448;7.904;2023-04-06T02:13:37;98334.72;;;-1.02;62.33
46392;BME280;32098;49.448;7.904;2023-04-06T02:16:04;98330.09;;;-1.09;62.91
46392;BME280;32098;49.448;7.904;2023-04-06T02:18:31;98336.38;;;-1.01;62.84
46392;BME280;32098;49.448;7.904;2023-04-06T02:21:00;98328.50;;;-1.01;62.54
46392;BME280;32098;49.448;7.904;2023-04-06T02:23:27;98313.47;;;-1.17;63.24
46392;BME280;32098;49.448;7.904;2023-04-06T02:25:56;98328.97;;;-1.06;63.16
46392;BME280;32098;49.448;7.904;2023-04-06T02:28:22;98327.84;;;-1.03;63.17
46392;BME280;32098;49.448;7.904;2023-04-06T02:30:50;98329.50;;;-1.02;63.22
46392;BME280;32098;49.448;7.904;2023-04-06T02:33:17;98325.78;;;-1.18;63.46
46392;BME280;32098;49.448;7.904;2023-04-06T02:35:46;98318.47;;;-1.06;62.78
46392;BME280;32098;49.448;7.904;2023-04-06T02:38:13;98323.88;;;-1.08;62.67
46392;BME280;32098;49.448;7.904;2023-04-06T02:40:40;98322.84;;;-1.15;62.94
46392;BME280;32098;49.448;7.904;2023-04-06T02:43:19;98323.81;;;-1.16;63.50
46392;BME280;32098;49.448;7.904;2023-04-06T02:45:50;98316.09;;;-1.17;63.15
46392;BME280;32098;49.448;7.904;2023-04-06T02:48:19;98317.84;;;-1.26;62.92
46392;BME280;32098;49.448;7.904;2023-04-06T02:50:46;98314.88;;;-1.31;64.02
46392;BME280;32098;49.448;7.904;2023-04-06T02:53:13;98313.22;;;-1.32;63.61
46392;BME280;32098;49.448;7.904;2023-04-06T02:55:39;98310.94;;;-1.35;63.36
46392;BME280;32098;49.448;7.904;2023-04-06T02:58:06;98306.06;;;-1.30;63.97
46392;BME280;32098;49.448;7.904;2023-04-06T03:00:55;98312.25;;;-1.31;63.92
46392;BME280;32098;49.448;7.904;2023-04-06T03:03:22;98305.00;;;-1.37;63.42
46392;BME280;32098;49.448;7.904;2023-04-06T03:05:49;98298.66;;;-1.52;63.93
46392;BME280;32098;49.448;7.904;2023-04-06T03:08:22;98298.59;;;-1.42;63.82
46392;BME280;32098;49.448;7.904;2023-04-06T03:10:49;98311.31;;;-1.47;64.24
46392;BME280;32098;49.448;7.904;2023-04-06T03:13:17;98306.22;;;-1.49;63.96
46392;BME280;32098;49.448;7.904;2023-04-06T03:15:47;98310.19;;;-1.45;63.79
46392;BME280;32098;49.448;7.904;2023-04-06T03:18:21;98301.88;;;-1.40;64.26
46392;BME280;32098;49.448;7.904;2023-04-06T03:20:50;98311.34;;;-1.39;64.05
46392;BME280;32098;49.448;7.904;2023-04-06T03:23:18;98312.47;;;-1.42;63.47
46392;BME280;32098;49.448;7.904;2023-04-06T03:25:51;98298.72;;;-1.44;63.80
46392;BME280;32098;49.448;7.904;2023-04-06T03:28:19;98309.50;;;-1.47;63.82
46392;BME280;32098;49.448;7.904;2023-04-06T03:30:53;98308.09;;;-1.59;63.78
46392;BME280;32098;49.448;7.904;2023-04-06T03:33:56;98313.09;;;-1.48;63.89
46392;BME280;32098;49.448;7.904;2023-04-06T03:36:27;98311.75;;;-1.52;64.61
46392;BME280;32098;49.448;7.904;2023-04-06T03:38:56;98308.25;;;-1.60;64.10
46392;BME280;32098;49.448;7.904;2023-04-06T03:41:22;98315.81;;;-1.57;64.33
46392;BME280;32098;49.448;7.904;2023-04-06T03:44:15;98313.25;;;-1.67;64.76
46392;BME280;32098;49.448;7.904;2023-04-06T03:46:43;98308.34;;;-1.70;64.30
46392;BME280;32098;49.448;7.904;2023-04-06T03:49:10;98295.91;;;-1.68;64.58
46392;BME280;32098;49.448;7.904;2023-04-06T03:51:38;98309.97;;;-1.69;64.70
46392;BME280;32098;49.448;7.904;2023-04-06T03:54:05;98235.94;;;-2.14;64.46
46392;BME280;32098;49.448;7.904;2023-04-06T03:56:32;98313.63;;;-1.62;64.75
46392;BME280;32098;49.448;7.904;2023-04-06T03:58:59;98314.75;;;-1.82;64.79
46392;BME280;32098;49.448;7.904;2023-04-06T04:01:25;98324.09;;;-1.80;64.73
46392;BME280;32098;49.448;7.904;2023-04-06T04:03:54;98323.59;;;-1.83;64.58
46392;BME280;32098;49.448;7.904;2023-04-06T04:06:21;98327.78;;;-1.90;65.22
46392;BME280;32098;49.448;7.904;2023-04-06T04:08:47;98277.03;;;-2.24;65.47
46392;BME280;32098;49.448;7.904;2023-04-06T04:11:14;98331.34;;;-1.91;65.41
46392;BME280;32098;49.448;7.904;2023-04-06T04:13:50;98345.72;;;-1.95;65.96
46392;BME280;32098;49.448;7.904;2023-04-06T04:16:16;98346.75;;;-1.88;65.31
46392;BME280;32098;49.448;7.904;2023-04-06T04:18:43;98338.75;;;-1.87;65.49
46392;BME280;32098;49.448;7.904;2023-04-06T04:21:11;98349.09;;;-1.85;64.74
46392;BME280;32098;49.448;7.904;2023-04-06T04:23:38;98337.63;;;-1.84;65.49
46392;BME280;32098;49.448;7.904;2023-04-06T04:26:05;98341.66;;;-1.90;64.78
46392;BME280;32098;49.448;7.904;2023-04-06T04:28:33;98352.56;;;-1.94;64.97
46392;BME280;32098;49.448;7.904;2023-04-06T04:31:00;98344.44;;;-1.91;65.58
46392;BME280;32098;49.448;7.904;2023-04-06T04:33:30;98347.13;;;-2.01;65.49
46392;BME280;32098;49.448;7.904;2023-04-06T04:36:00;98345.72;;;-1.95;65.26
46392;BME280;32098;49.448;7.904;2023-04-06T04:38:34;98352.34;;;-2.01;65.63
46392;BME280;32098;49.448;7.904;2023-04-06T04:41:01;98349.09;;;-2.12;65.69
46392;BME280;32098;49.448;7.904;2023-04-06T04:43:29;98354.03;;;-2.09;65.99
46392;BME280;32098;49.448;7.904;2023-04-06T04:46:01;98337.84;;;-2.13;65.50
46392;BME280;32098;49.448;7.904;2023-04-06T04:48:38;98351.38;;;-2.00;65.09
46392;BME280;32098;49.448;7.904;2023-04-06T04:51:06;98352.06;;;-1.98;65.08
46392;BME280;32098;49.448;7.904;2023-04-06T04:53:46;98357.34;;;-2.07;66.00
46392;BME280;32098;49.448;7.904;2023-04-06T04:56:21;98361.59;;;-2.06;65.62
46392;BME280;32098;49.448;7.904;2023-04-06T04:58:52;98349.88;;;-2.02;65.40
46392;BME280;32098;49.448;7.904;2023-04-06T05:01:18;98347.94;;;-2.00;65.79
46392;BME280;32098;49.448;7.904;2023-04-06T05:03:45;98341.06;;;-2.01;66.01
46392;BME280;32098;49.448;7.904;2023-04-06T05:06:14;98344.13;;;-2.06;65.40
46392;BME280;32098;49.448;7.904;2023-04-06T05:08:42;98354.03;;;-2.09;65.73
46392;BME280;32098;49.448;7.904;2023-04-06T05:11:09;98349.56;;;-1.99;66.12
46392;BME280;32098;49.448;7.904;2023-04-06T05:13:42;98348.09;;;-2.02;66.09
46392;BME280;32098;49.448;7.904;2023-04-06T05:16:13;98343.22;;;-1.97;65.28
46392;BME280;32098;49.448;7.904;2023-04-06T05:18:41;98347.34;;;-1.94;65.86
46392;BME280;32098;49.448;7.904;2023-04-06T05:21:08;98346.09;;;-1.90;66.07
46392;BME280;32098;49.448;7.904;2023-04-06T05:23:47;98339.38;;;-1.75;65.26
46392;BME280;32098;49.448;7.904;2023-04-06T05:26:14;98343.78;;;-1.76;65.53
46392;BME280;32098;49.448;7.904;2023-04-06T05:28:41;98340.78;;;-1.63;64.10
46392;BME280;32098;49.448;7.904;2023-04-06T05:31:11;98349.78;;;-1.48;63.87
46392;BME280;32098;49.448;7.904;2023-04-06T05:33:45;98348.84;;;-1.21;63.60
46392;BME280;32098;49.448;7.904;2023-04-06T05:36:14;98344.59;;;-0.96;63.27
46392;BME280;32098;49.448;7.904;2023-04-06T05:38:44;98347.38;;;-0.72;61.94
46392;BME280;32098;49.448;7.904;2023-04-06T05:41:20;98353.41;;;-0.46;62.03
46392;BME280;32098;49.448;7.904;2023-04-06T05:43:47;98359.00;;;-0.07;60.30
46392;BME280;32098;49.448;7.904;2023-04-06T05:46:15;98350.72;;;0.30;59.77
46392;BME280;32098;49.448;7.904;2023-04-06T05:48:43;98364.19;;;0.59;58.23
46392;BME280;32098;49.448;7.904;2023-04-06T05:51:12;98361.25;;;0.94;58.00
46392;BME280;32098;49.448;7.904;2023-04-06T05:53:44;98358.63;;;1.18;56.54
46392;BME280;32098;49.448;7.904;2023-04-06T05:56:11;98361.19;;;1.42;56.08
46392;BME280;32098;49.448;7.904;2023-04-06T05:58:39;98359.59;;;1.80;55.17
46392;BME280;32098;49.448;7.904;2023-04-06T06:01:09;98352.88;;;2.08;54.20
46392;BME280;32098;49.448;7.904;2023-04-06T06:03:40;98352.50;;;2.42;53.92
46392;BME280;32098;49.448;7.904;2023-04-06T06:06:07;98351.28;;;2.75;53.05
46392;BME280;32098;49.448;7.904;2023-04-06T06:09:05;98352.22;;;3.05;52.17
46392;BME280;32098;49.448;7.904;2023-04-06T06:11:38;98355.16;;;3.25;51.70
46392;BME280;32098;49.448;7.904;2023-04-06T06:14:05;98353.28;;;3.48;51.70
46392;BME280;32098;49.448;7.904;2023-04-06T06:16:35;98354.75;;;3.65;50.92
46392;BME280;32098;49.448;7.904;2023-04-06T06:19:02;98355.28;;;3.75;50.67
46392;BME280;32098;49.448;7.904;2023-04-06T06:21:30;98349.97;;;4.04;50.50
46392;BME280;32098;49.448;7.904;2023-04-06T06:23:58;98340.91;;;4.28;49.86
46392;BME280;32098;49.448;7.904;2023-04-06T06:26:24;98339.09;;;4.50;49.23
46392;BME280;32098;49.448;7.904;2023-04-06T06:28:51;98344.16;;;4.66;48.75
46392;BME280;32098;49.448;7.904;2023-04-06T06:31:19;98346.91;;;4.79;49.15
46392;BME280;32098;49.448;7.904;2023-04-06T06:33:49;98346.66;;;4.95;48.67
46392;BME280;32098;49.448;7.904;2023-04-06T06:36:20;98347.25;;;5.18;48.92
46392;BME280;32098;49.448;7.904;2023-04-06T06:38:49;98346.31;;;5.26;47.84
46392;BME280;32098;49.448;7.904;2023-04-06T06:41:18;98346.66;;;5.44;47.53
46392;BME280;32098;49.448;7.904;2023-04-06T06:43:45;98348.00;;;5.61;47.88
46392;BME280;32098;49.448;7.904;2023-04-06T06:46:11;98349.53;;;5.83;47.59
46392;BME280;32098;49.448;7.904;2023-04-06T06:48:39;98302.91;;;5.55;46.76
46392;BME280;32098;49.448;7.904;2023-04-06T06:51:06;98345.63;;;6.20;65.59
46392;BME280;32098;49.448;7.904;2023-04-06T06:53:33;98345.38;;;6.89;63.42
46392;BME280;32098;49.448;7.904;2023-04-06T06:55:59;98341.72;;;7.49;60.37
46392;BME280;32098;49.448;7.904;2023-04-06T06:58:27;98344.28;;;7.88;58.72
46392;BME280;32098;49.448;7.904;2023-04-06T07:00:58;98341.91;;;8.18;56.92
46392;BME280;32098;49.448;7.904;2023-04-06T07:03:26;98341.16;;;8.48;56.02
46392;BME280;32098;49.448;7.904;2023-04-06T07:05:53;98337.19;;;8.64;53.60
46392;BME280;32098;49.448;7.904;2023-04-06T07:08:23;98331.34;;;8.87;50.77
46392;BME280;32098;49.448;7.904;2023-04-06T07:10:51;98335.78;;;9.17;51.56
46392;BME280;32098;49.448;7.904;2023-04-06T07:13:22;98325.03;;;9.06;41.19
46392;BME280;32098;49.448;7.904;2023-04-06T07:15:53;98332.59;;;8.84;41.49
46392;BME280;32098;49.448;7.904;2023-04-06T07:18:20;98328.84;;;8.54;41.65
46392;BME280;32098;49.448;7.904;2023-04-06T07:20:47;98324.19;;;8.49;42.05
46392;BME280;32098;49.448;7.904;2023-04-06T07:23:15;98328.97;;;8.66;42.16
46392;BME280;32098;49.448;7.904;2023-04-06T07:25:43;98313.97;;;8.78;42.02
46392;BME280;32098;49.448;7.904;2023-04-06T07:28:10;98329.00;;;8.97;41.02
46392;BME280;32098;49.448;7.904;2023-04-06T07:30:37;98322.69;;;9.16;41.30
46392;BME280;32098;49.448;7.904;2023-04-06T07:33:04;98323.09;;;9.38;41.03
46392;BME280;32098;49.448;7.904;2023-04-06T07:35:34;98326.63;;;9.56;41.36
46392;BME280;32098;49.448;7.904;2023-04-06T07:38:04;98324.94;;;9.98;42.44
46392;BME280;32098;49.448;7.904;2023-04-06T07:40:32;98323.91;;;9.99;43.17
46392;BME280;32098;49.448;7.904;2023-04-06T07:42:59;98316.34;;;9.96;42.21
46392;BME280;32098;49.448;7.904;2023-04-06T07:45:26;98309.59;;;10.30;42.54
46392;BME280;32098;49.448;7.904;2023-04-06T07:47:53;98287.47;;;10.41;41.03
46392;BME280;32098;49.448;7.904;2023-04-06T07:50:20;98318.84;;;10.87;40.02
46392;BME280;32098;49.448;7.904;2023-04-06T07:52:47;98318.41;;;10.90;38.77
46392;BME280;32098;49.448;7.904;2023-04-06T07:55:14;98316.88;;;10.94;37.88
46392;BME280;32098;49.448;7.904;2023-04-06T07:57:40;98317.38;;;10.31;35.99
46392;BME280;32098;49.448;7.904;2023-04-06T08:00:08;98316.97;;;10.46;35.89
46392;BME280;32098;49.448;7.904;2023-04-06T08:02:38;98320.41;;;10.65;38.12
46392;BME280;32098;49.448;7.904;2023-04-06T08:05:05;98318.34;;;10.67;37.92
46392;BME280;32098;49.448;7.904;2023-04-06T08:07:32;98320.75;;;10.68;37.49
46392;BME280;32098;49.448;7.904;2023-04-06T08:09:59;98319.75;;;11.34;36.06
46392;BME280;32098;49.448;7.904;2023-04-06T08:12:26;98324.81;;;11.93;35.64
46392;BME280;32098;49.448;7.904;2023-04-06T08:14:52;98313.09;;;12.46;34.72
46392;BME280;32098;49.448;7.904;2023-04-06T08:17:19;98314.25;;;12.66;34.31
46392;BME280;32098;49.448;7.904;2023-04-06T08:19:46;98314.41;;;12.88;33.31
46392;BME280;32098;49.448;7.904;2023-04-06T08:22:12;98314.09;;;13.18;31.89
46392;BME280;32098;49.448;7.904;2023-04-06T08:24:39;98309.03;;;13.38;31.00
46392;BME280;32098;49.448;7.904;2023-04-06T08:27:06;98323.72;;;13.68;30.59
46392;BME280;32098;49.448;7.904;2023-04-06T08:29:33;98314.09;;;13.89;29.86
46392;BME280;32098;49.448;7.904;2023-04-06T08:32:00;98310.34;;;14.12;30.41
46392;BME280;32098;49.448;7.904;2023-04-06T08:34:32;98313.66;;;14.19;29.01
46392;BME280;32098;49.448;7.904;2023-04-06T08:36:59;98311.91;;;14.29;29.23
46392;BME280;32098;49.448;7.904;2023-04-06T08:39:27;98302.16;;;14.45;28.55
46392;BME280;32098;49.448;7.904;2023-04-06T08:41:54;98304.63;;;14.52;28.33
46392;BME280;32098;49.448;7.904;2023-04-06T08:44:26;98303.16;;;14.61;28.04
46392;BME280;32098;49.448;7.904;2023-04-06T08:46:54;98303.09;;;14.82;28.65
46392;BME280;32098;49.448;7.904;2023-04-06T08:49:21;98294.53;;;14.85;27.91
46392;BME280;32098;49.448;7.904;2023-04-06T08:51:49;98296.94;;;14.87;28.02
46392;BME280;32098;49.448;7.904;2023-04-06T08:54:18;98281.47;;;14.99;27.31
46392;BME280;32098;49.448;7.904;2023-04-06T08:56:44;98296.00;;;14.98;27.07
46392;BME280;32098;49.448;7.904;2023-04-06T08:59:11;98286.41;;;15.12;27.21
46392;BME280;32098;49.448;7.904;2023-04-06T09:01:39;98290.47;;;15.15;27.28
46392;BME280;32098;49.448;7.904;2023-04-06T09:04:08;98271.91;;;15.13;27.15
46392;BME280;32098;49.448;7.904;2023-04-06T09:06:38;98293.59;;;15.33;26.97
46392;BME280;32098;49.448;7.904;2023-04-06T09:09:06;98287.00;;;15.19;26.48
46392;BME280;32098;49.448;7.904;2023-04-06T09:11:49;98298.88;;;15.23;26.87
46392;BME280;32098;49.448;7.904;2023-04-06T09:14:17;98289.66;;;15.14;26.89
46392;BME280;32098;49.448;7.904;2023-04-06T09:16:45;98290.88;;;15.02;26.27
46392;BME280;32098;49.448;7.904;2023-04-06T09:19:12;98301.31;;;14.93;26.89
46392;BME280;32098;49.448;7.904;2023-04-06T09:21:38;98299.03;;;14.80;26.72
46392;BME280;32098;49.448;7.904;2023-04-06T09:24:08;98297.69;;;14.77;26.72
46392;BME280;32098;49.448;7.904;2023-04-06T09:26:46;98295.00;;;14.77;26.76
46392;BME280;32098;49.448;7.904;2023-04-06T09:29:23;98296.47;;;14.63;26.78
46392;BME280;32098;49.448;7.904;2023-04-06T09:31:51;98296.78;;;14.45;26.84
46392;BME280;32098;49.448;7.904;2023-04-06T09:34:22;98297.47;;;14.57;26.88
46392;BME280;32098;49.448;7.904;2023-04-06T09:36:49;98271.28;;;14.48;26.88
46392;BME280;32098;49.448;7.904;2023-04-06T09:39:20;98299.34;;;14.83;27.20
46392;BME280;32098;49.448;7.904;2023-04-06T09:41:50;98302.78;;;14.79;26.88
46392;BME280;32098;49.448;7.904;2023-04-06T09:44:17;98296.50;;;14.47;27.22
46392;BME280;32098;49.448;7.904;2023-04-06T09:46:44;98292.50;;;14.22;26.79
46392;BME280;32098;49.448;7.904;2023-04-06T09:49:30;98295.50;;;14.04;26.90
46392;BME280;32098;49.448;7.904;2023-04-06T09:52:02;98294.38;;;14.22;27.05
46392;BME280;32098;49.448;7.904;2023-04-06T09:54:30;98279.72;;;14.35;26.74
46392;BME280;32098;49.448;7.904;2023-04-06T09:57:09;98268.28;;;14.44;27.15
46392;BME280;32098;49.448;7.904;2023-04-06T10:00:06;98278.03;;;14.77;27.28
46392;BME280;32098;49.448;7.904;2023-04-06T10:03:04;98272.91;;;15.07;26.93
46392;BME280;32098;49.448;7.904;2023-04-06T10:05:42;98283.97;;;14.79;26.18
46392;BME280;32098;49.448;7.904;2023-04-06T10:08:10;98277.56;;;14.85;26.51
46392;BME280;32098;49.448;7.904;2023-04-06T10:10:37;98290.31;;;14.68;26.58
46392;BME280;32098;49.448;7.904;2023-04-06T10:13:04;98287.88;;;14.66;26.88
46392;BME280;32098;49.448;7.904;2023-04-06T10:15:33;98284.53;;;14.81;26.42
46392;BME280;32098;49.448;7.904;2023-04-06T10:18:00;98283.97;;;14.79;26.72
46392;BME280;32098;49.448;7.904;2023-04-06T10:20:42;98277.28;;;14.81;26.31
46392;BME280;32098;49.448;7.904;2023-04-06T10:23:34;98281.63;;;14.56;25.74
46392;BME280;32098;49.448;7.904;2023-04-06T10:26:02;98270.78;;;14.77;25.79
46392;BME280;32098;49.448;7.904;2023-04-06T10:28:33;98271.97;;;14.91;26.52
46392;BME280;32098;49.448;7.904;2023-04-06T10:31:04;98269.56;;;14.90;26.24
46392;BME280;32098;49.448;7.904;2023-04-06T10:33:31;98262.00;;;14.87;26.46
46392;BME280;32098;49.448;7.904;2023-04-06T10:36:22;98263.44;;;15.00;26.44
46392;BME280;32098;49.448;7.904;2023-04-06T10:38:46;98245.41;;;14.42;25.70
46392;BME280;32098;49.448;7.904;2023-04-06T10:41:12;98271.47;;;14.41;25.81
46392;BME280;32098;49.448;7.904;2023-04-06T10:43:40;98271.91;;;14.55;25.32
46392;BME280;32098;49.448;7.904;2023-04-06T10:46:09;98276.75;;;14.53;25.66
46392;BME280;32098;49.448;7.904;2023-04-06T10:51:12;98280.78;;;14.55;25.83
46392;BME280;32098;49.448;7.904;2023-04-06T10:53:44;98242.16;;;14.40;26.19
46392;BME280;32098;49.448;7.904;2023-04-06T10:56:13;98258.94;;;14.73;26.31
46392;BME280;32098;49.448;7.904;2023-04-06T10:58:47;98248.78;;;14.80;25.92
46392;BME280;32098;49.448;7.904;2023-04-06T11:01:18;98261.03;;;14.71;26.59
46392;BME280;32098;49.448;7.904;2023-04-06T11:03:47;98260.31;;;14.76;26.60
46392;BME280;32098;49.448;7.904;2023-04-06T11:06:22;98249.72;;;14.96;26.72
46392;BME280;32098;49.448;7.904;2023-04-06T11:08:51;98243.63;;;15.11;26.90
46392;BME280;32098;49.448;7.904;2023-04-06T11:11:20;98249.81;;;15.11;26.89
46392;BME280;32098;49.448;7.904;2023-04-06T11:13:52;98249.72;;;14.96;26.41
46392;BME280;32098;49.448;7.904;2023-04-06T11:16:25;98250.69;;;14.85;26.12
46392;BME280;32098;49.448;7.904;2023-04-06T11:18:57;98247.31;;;14.68;25.33
46392;BME280;32098;49.448;7.904;2023-04-06T11:21:37;98253.06;;;14.28;24.80
46392;BME280;32098;49.448;7.904;2023-04-06T11:24:14;98248.91;;;14.42;25.03
46392;BME280;32098;49.448;7.904;2023-04-06T11:26:46;98248.00;;;14.31;25.74
46392;BME280;32098;49.448;7.904;2023-04-06T11:29:19;98210.28;;;14.21;27.11
46392;BME280;32098;49.448;7.904;2023-04-06T11:31:47;98231.09;;;14.58;27.96
46392;BME280;32098;49.448;7.904;2023-04-06T11:34:24;98237.78;;;14.55;26.89
46392;BME280;32098;49.448;7.904;2023-04-06T11:39:27;98232.66;;;14.54;27.03
46392;BME280;32098;49.448;7.904;2023-04-06T11:41:57;98229.25;;;14.37;26.57
46392;BME280;32098;49.448;7.904;2023-04-06T11:44:46;98226.91;;;14.45;26.93
46392;BME280;32098;49.448;7.904;2023-04-06T11:47:15;98226.09;;;14.45;27.75
46392;BME280;32098;49.448;7.904;2023-04-06T11:49:44;98227.31;;;14.32;28.08
46392;BME280;32098;49.448;7.904;2023-04-06T11:54:42;98222.88;;;14.43;29.05
46392;BME280;32098;49.448;7.904;2023-04-06T11:57:09;98219.00;;;14.33;27.28
46392;BME280;32098;49.448;7.904;2023-04-06T11:59:35;98212.16;;;14.21;26.66
46392;BME280;32098;49.448;7.904;2023-04-06T12:02:03;98209.66;;;14.14;27.16
46392;BME280;32098;49.448;7.904;2023-04-06T12:04:30;98216.94;;;13.92;27.31
46392;BME280;32098;49.448;7.904;2023-04-06T12:06:57;98211.69;;;14.02;26.89
46392;BME280;32098;49.448;7.904;2023-04-06T12:09:24;98217.72;;;14.14;26.90
46392;BME280;32098;49.448;7.904;2023-04-06T12:11:50;98219.03;;;14.12;27.01
46392;BME280;32098;49.448;7.904;2023-04-06T12:14:18;98211.81;;;14.12;26.92
46392;BME280;32098;49.448;7.904;2023-04-06T12:16:45;98215.09;;;14.19;26.71
46392;BME280;32098;49.448;7.904;2023-04-06T12:19:12;98212.16;;;14.21;26.60
46392;BME280;32098;49.448;7.904;2023-04-06T12:21:39;98216.72;;;14.20;27.66
46392;BME280;32098;49.448;7.904;2023-04-06T12:24:07;98215.53;;;14.11;27.52
46392;BME280;32098;49.448;7.904;2023-04-06T12:26:34;98209.16;;;14.17;27.25
46392;BME280;32098;49.448;7.904;2023-04-06T12:29:02;98207.63;;;14.00;27.34
46392;BME280;32098;49.448;7.904;2023-04-06T12:31:37;98212.25;;;14.04;27.28
46392;BME280;32098;49.448;7.904;2023-04-06T12:34:06;98208.25;;;14.07;27.22
46392;BME280;32098;49.448;7.904;2023-04-06T12:36:33;98192.06;;;14.02;27.17
46392;BME280;32098;49.448;7.904;2023-04-06T12:39:00;98206.22;;;13.92;28.79
46392;BME280;32098;49.448;7.904;2023-04-06T12:41:30;98200.50;;;13.89;27.48
46392;BME280;32098;49.448;7.904;2023-04-06T12:43:58;98202.69;;;13.92;27.46
46392;BME280;32098;49.448;7.904;2023-04-06T12:46:26;98188.19;;;13.88;27.36
46392;BME280;32098;49.448;7.904;2023-04-06T12:48:52;98202.47;;;13.93;28.67
46392;BME280;32098;49.448;7.904;2023-04-06T12:51:23;98200.78;;;13.87;27.58
46392;BME280;32098;49.448;7.904;2023-04-06T12:53:49;98209.69;;;13.71;27.50
46392;BME280;32098;49.448;7.904;2023-04-06T12:56:17;98203.53;;;13.71;27.64
46392;BME280;32098;49.448;7.904;2023-04-06T12:58:45;98197.09;;;13.72;28.04
46392;BME280;32098;49.448;7.904;2023-04-06T13:01:12;98203.34;;;13.77;28.87
46392;BME280;32098;49.448;7.904;2023-04-06T13:03:40;98208.72;;;13.77;29.10
46392;BME280;32098;49.448;7.904;2023-04-06T13:06:08;98194.72;;;13.75;28.58
46392;BME280;32098;49.448;7.904;2023-04-06T13:08:35;98200.78;;;13.65;28.70
46392;BME280;32098;49.448;7.904;2023-04-06T13:11:04;98161.38;;;13.28;28.69
46392;BME280;32098;49.448;7.904;2023-04-06T13:13:31;98199.91;;;13.22;29.19
46392;BME280;32098;49.448;7.904;2023-04-06T13:16:00;98197.00;;;13.07;29.61
46392;BME280;32098;49.448;7.904;2023-04-06T13:18:30;98198.78;;;13.18;29.97
46392;BME280;32098;49.448;7.904;2023-04-06T13:20:58;98201.53;;;13.23;30.08
46392;BME280;32098;49.448;7.904;2023-04-06T13:23:26;98198.84;;;13.23;29.97